Time;durP1;ratioP1;P1;durP2;ratioP2;P2;SDS_P1;SDS_P2;PMS_P1;PMS_P2;Temp;Humidity;BMP_temperature;BMP_pressure;BME280_temperature;BME280_humidity;BME280_pressure;Samples;Min_cycle;Max_cycle;Signal;HPM_P1;HPM_P2
2022/08/10 00:00:25;;;;;;;11.00;6.78;;;20.50;99.90;;;;;;4958808;28;20347;-75
2022/08/10 00:02:55;;;;;;;12.00;7.95;;;20.60;99.90;;;;;;4958143;28;20035;-76
2022/08/10 00:05:22;;;;;;;12.68;7.65;;;20.60;99.90;;;;;;4958265;28;20035;-76
2022/08/10 00:07:47;;;;;;;13.30;7.30;;;20.50;99.90;;;;;;4958458;28;20019;-73
2022/08/10 00:10:15;;;;;;;11.82;7.63;;;20.40;99.90;;;;;;4958450;28;20039;-74
2022/08/10 00:12:42;;;;;;;12.95;7.38;;;20.40;99.90;;;;;;4957783;28;20031;-74
2022/08/10 00:15:09;;;;;;;10.75;7.05;;;20.40;99.90;;;;;;4958413;28;20035;-75
2022/08/10 00:17:35;;;;;;;12.45;7.57;;;20.30;99.90;;;;;;4958221;28;20042;-76
2022/08/10 00:20:03;;;;;;;10.77;6.75;;;20.30;99.90;;;;;;4958143;28;20046;-76
2022/08/10 00:22:29;;;;;;;11.00;7.20;;;20.30;99.90;;;;;;4958239;28;20362;-75
2022/08/10 00:24:58;;;;;;;11.07;7.25;;;20.20;99.90;;;;;;4958072;28;20038;-75
2022/08/10 00:27:24;;;;;;;13.90;7.47;;;20.20;99.90;;;;;;4957942;28;20082;-73
2022/08/10 00:29:50;;;;;;;11.27;6.95;;;20.20;99.90;;;;;;4957832;28;20877;-74
2022/08/10 00:32:16;;;;;;;11.55;7.00;;;20.10;99.90;;;;;;4958175;28;20031;-76
2022/08/10 00:34:42;;;;;;;11.15;7.55;;;20.10;99.90;;;;;;4957865;28;20023;-76
2022/08/10 00:37:08;;;;;;;11.02;6.95;;;20.10;99.90;;;;;;4957888;28;20086;-70
2022/08/10 00:39:34;;;;;;;12.65;7.90;;;20.00;99.90;;;;;;4957990;28;20027;-75
2022/08/10 00:42:00;;;;;;;12.38;7.15;;;20.00;99.90;;;;;;4957767;28;20070;-74
2022/08/10 00:44:25;;;;;;;13.32;8.32;;;20.10;99.90;;;;;;4956937;28;20054;-77
2022/08/10 00:46:51;;;;;;;13.57;8.43;;;20.00;99.90;;;;;;4956446;28;20497;-77
2022/08/10 00:49:17;;;;;;;12.25;7.22;;;20.00;99.90;;;;;;4956659;28;20035;-78
2022/08/10 00:51:43;;;;;;;14.85;6.32;;;20.00;99.90;;;;;;4956382;28;20028;-76
2022/08/10 00:54:09;;;;;;;12.35;7.50;;;19.90;99.90;;;;;;4956744;28;20034;-78
2022/08/10 00:56:35;;;;;;;10.95;6.68;;;20.00;99.90;;;;;;4956096;28;20082;-77
2022/08/10 00:59:01;;;;;;;12.13;7.45;;;20.00;99.90;;;;;;4956374;28;20419;-75
2022/08/10 01:01:27;;;;;;;13.07;7.40;;;19.90;99.90;;;;;;4956255;28;20024;-74
2022/08/10 01:03:53;;;;;;;13.43;7.72;;;20.00;99.90;;;;;;4956002;28;20497;-73
2022/08/10 01:06:37;;;;;;;12.73;7.43;;;20.00;99.90;;;;;;4956312;28;20106;-74
2022/08/10 01:09:20;;;;;;;11.38;6.65;;;20.00;99.90;;;;;;4956192;28;20031;-74
2022/08/10 01:11:54;;;;;;;11.25;7.05;;;19.90;99.90;;;;;;4956180;28;20176;-74
2022/08/10 01:14:27;;;;;;;11.73;7.20;;;19.90;99.90;;;;;;4956124;28;20110;-75
2022/08/10 01:16:55;;;;;;;;;;;19.90;99.90;;;;;;4958107;28;20385;-73
2022/08/10 01:19:51;;;;;;;9.68;6.50;;;19.80;99.90;;;;;;4957474;28;19910;-74
2022/08/10 01:22:59;;;;;;;14.52;7.25;;;19.80;99.90;;;;;;4955770;28;20027;-75
2022/08/10 01:26:04;;;;;;;12.65;6.82;;;19.80;99.90;;;;;;4955963;28;20423;-75
2022/08/10 01:28:56;;;;;;;12.73;8.00;;;19.80;99.90;;;;;;4956060;28;20090;-75
2022/08/10 01:31:26;;;;;;;11.52;7.30;;;19.80;99.90;;;;;;4967779;28;20110;-74
2022/08/10 01:34:06;;;;;;;11.10;6.97;;;19.80;99.90;;;;;;4957315;28;20031;-74
2022/08/10 01:36:40;;;;;;;12.90;7.50;;;19.80;99.90;;;;;;4955632;28;20020;-75
2022/08/10 01:39:07;;;;;;;11.43;7.07;;;19.70;99.90;;;;;;4955665;28;20019;-73
2022/08/10 01:41:40;;;;;;;11.25;6.45;;;19.70;99.90;;;;;;4957448;28;20435;-75
2022/08/10 01:44:29;;;;;;;12.65;6.97;;;19.70;99.90;;;;;;4917145;28;1129832;-76
2022/08/10 01:48:27;;;;;;;11.45;7.43;;;19.60;99.90;;;;;;4956641;28;20039;-73
2022/08/10 01:49:47;;;;;;;16.58;6.90;;;19.70;99.90;;;;;;4967188;28;20019;-74
2022/08/10 01:52:17;;;;;;;11.80;6.85;;;19.80;99.90;;;;;;4956430;28;20035;-74
2022/08/10 01:54:44;;;;;;;11.70;6.70;;;19.70;99.90;;;;;;4955978;28;20102;-75
2022/08/10 01:57:12;;;;;;;11.65;7.10;;;19.70;99.90;;;;;;4965849;28;20458;-75
2022/08/10 01:59:40;;;;;;;12.70;6.80;;;19.80;99.90;;;;;;4957718;28;20043;-76
2022/08/10 02:02:12;;;;;;;12.45;6.93;;;19.70;99.90;;;;;;4956182;28;20026;-75
2022/08/10 02:04:44;;;;;;;11.88;6.57;;;19.60;99.90;;;;;;4955935;28;20031;-75
2022/08/10 02:07:12;;;;;;;;;;;19.60;99.90;;;;;;4965694;28;20098;-73
2022/08/10 02:09:41;;;;;;;11.43;7.15;;;19.70;99.90;;;;;;4959588;28;19944;-75
2022/08/10 02:12:10;;;;;;;12.07;7.18;;;19.60;99.90;;;;;;4956004;28;20035;-71
2022/08/10 02:15:00;;;;;;;11.68;7.05;;;19.70;99.90;;;;;;4961090;28;20035;-74
2022/08/10 02:17:36;;;;;;;10.35;6.65;;;19.60;99.90;;;;;;4955615;28;20054;-75
2022/08/10 02:20:07;;;;;;;14.18;6.60;;;19.60;99.90;;;;;;4959623;28;20035;-75
2022/08/10 02:22:34;;;;;;;10.68;7.10;;;19.60;99.90;;;;;;4955853;28;20077;-75
2022/08/10 02:25:01;;;;;;;11.25;6.85;;;19.60;99.90;;;;;;4955777;28;20030;-75
2022/08/10 02:27:29;;;;;;;12.93;7.78;;;19.60;99.90;;;;;;4956080;28;20035;-69
2022/08/10 02:29:56;;;;;;;12.45;6.57;;;19.60;99.90;;;;;;4956378;28;20399;-75
2022/08/10 02:32:25;;;;;;;13.40;7.82;;;19.60;99.90;;;;;;4954462;29;20393;-75
2022/08/10 02:34:53;;;;;;;14.65;7.80;;;19.50;99.90;;;;;;4966459;28;20027;-75
2022/08/10 02:37:23;;;;;;;16.63;7.63;;;19.50;99.90;;;;;;4953285;28;20505;-76
2022/08/10 02:39:49;;;;;;;15.13;8.70;;;19.60;99.90;;;;;;4957490;28;20023;-77
2022/08/10 02:42:23;;;;;;;12.50;7.70;;;19.50;99.90;;;;;;4955055;28;20031;-76
2022/08/10 02:45:14;;;;;;;11.55;6.95;;;19.50;99.90;;;;;;4955253;28;20051;-76
2022/08/10 02:47:48;;;;;;;12.18;6.93;;;19.50;99.90;;;;;;4955241;28;20039;-76
2022/08/10 02:50:26;;;;;;;11.95;7.47;;;19.50;99.90;;;;;;4955324;28;20043;-76
2022/08/10 02:53:15;;;;;;;12.93;7.30;;;19.50;99.90;;;;;;4954066;28;20027;-75
2022/08/10 02:55:49;;;;;;;12.40;7.47;;;19.40;99.90;;;;;;4967415;28;20023;-75
2022/08/10 02:58:40;;;;;;;11.95;7.80;;;19.40;99.90;;;;;;4969862;28;20051;-75
2022/08/10 03:01:10;;;;;;;16.77;8.48;;;19.40;99.90;;;;;;4951377;28;20058;-75
2022/08/10 03:03:58;;;;;;;12.88;7.55;;;19.40;99.90;;;;;;4955105;28;20035;-75
2022/08/10 03:06:29;;;;;;;13.77;8.30;;;19.30;99.90;;;;;;4954530;29;20389;-75
2022/08/10 03:08:56;;;;;;;14.20;8.00;;;;;;;;;;4954232;28;20042;-75
2022/08/10 03:11:26;;;;;;;14.43;8.35;;;19.40;99.90;;;;;;4954926;28;20469;-75
2022/08/10 03:13:53;;;;;;;14.07;8.43;;;19.40;99.90;;;;;;4954524;28;20030;-75
2022/08/10 03:16:21;;;;;;;14.40;8.38;;;19.30;99.90;;;;;;4954369;28;20034;-75
2022/08/10 03:18:49;;;;;;;12.68;8.25;;;19.30;99.90;;;;;;4954619;28;20042;-75
2022/08/10 03:21:19;;;;;;;14.45;8.05;;;19.40;99.90;;;;;;4954709;28;20047;-76
2022/08/10 03:23:45;;;;;;;11.15;6.80;;;19.30;99.90;;;;;;4954749;28;20027;-76
2022/08/10 03:26:13;;;;;;;14.60;8.98;;;19.30;99.90;;;;;;4954471;28;20078;-75
2022/08/10 03:28:39;;;;;;;13.60;9.80;;;19.20;99.90;;;;;;4953594;28;20027;-74
2022/08/10 03:31:06;;;;;;;17.05;8.73;;;19.20;99.90;;;;;;4954494;28;20078;-75
2022/08/10 03:33:36;;;;;;;14.35;9.13;;;19.20;99.90;;;;;;4954610;28;20031;-75
2022/08/10 03:36:02;;;;;;;14.23;8.80;;;19.20;99.90;;;;;;4954771;28;20406;-75
2022/08/10 03:38:28;;;;;;;17.25;10.23;;;19.20;99.90;;;;;;4954281;28;20123;-75
2022/08/10 03:40:56;;;;;;;17.33;9.48;;;19.10;99.90;;;;;;4953833;28;20440;-75
2022/08/10 03:43:24;;;;;;;13.60;8.73;;;19.20;99.90;;;;;;4953920;28;20031;-75
2022/08/10 03:45:54;;;;;;;15.07;9.88;;;19.20;99.90;;;;;;4954272;28;20043;-73
2022/08/10 03:48:21;;;;;;;16.20;9.77;;;19.20;99.90;;;;;;4953985;28;20394;-76
2022/08/10 03:50:49;;;;;;;15.07;8.68;;;19.30;99.90;;;;;;4954281;28;20043;-75
2022/08/10 03:53:15;;;;;;;13.23;8.52;;;19.20;99.90;;;;;;4954316;28;20024;-75
2022/08/10 03:55:41;;;;;;;12.93;8.70;;;19.20;99.90;;;;;;4953852;28;20070;-75
2022/08/10 03:58:07;;;;;;;14.48;8.70;;;19.30;99.90;;;;;;4953873;28;20039;-75
2022/08/10 04:00:34;;;;;;;14.10;8.60;;;19.30;99.90;;;;;;4953715;28;20553;-75
2022/08/10 04:03:04;;;;;;;14.57;9.32;;;19.40;99.90;;;;;;4953097;28;20031;-75
2022/08/10 04:05:31;;;;;;;14.95;9.27;;;19.50;99.90;;;;;;4952901;29;20497;-75
2022/08/10 04:08:01;;;;;;;13.80;8.88;;;19.50;99.90;;;;;;4953958;28;20027;-75
2022/08/10 04:10:28;;;;;;;14.65;8.55;;;19.50;99.90;;;;;;4954295;28;20030;-76
2022/08/10 04:12:55;;;;;;;16.00;8.45;;;19.60;99.90;;;;;;4953831;28;20027;-76
2022/08/10 04:15:23;;;;;;;13.10;8.13;;;19.60;99.90;;;;;;4954860;28;20059;-64
2022/08/10 04:17:50;;;;;;;16.23;8.48;;;19.60;99.90;;;;;;4953589;28;20039;-77
2022/08/10 04:20:36;;;;;;;13.95;8.10;;;19.80;99.90;;;;;;4953354;28;20023;-76
2022/08/10 04:23:07;;;;;;;14.93;8.70;;;19.90;99.90;;;;;;4954011;28;20035;-77
2022/08/10 04:25:35;;;;;;;16.75;8.07;;;20.10;99.90;;;;;;4953528;28;20043;-66
2022/08/10 04:28:01;;;;;;;10.50;7.25;;;20.50;99.90;;;;;;4953927;28;20085;-76
2022/08/10 04:30:28;;;;;;;12.63;6.60;;;20.90;99.90;;;;;;4953297;28;20482;-76
2022/08/10 04:32:55;;;;;;;12.68;7.90;;;21.40;99.90;;;;;;4953874;28;20492;-76
2022/08/10 04:35:22;;;;;;;10.57;7.07;;;21.60;99.90;;;;;;4953824;28;20034;-77
2022/08/10 04:37:50;;;;;;;16.30;8.32;;;21.80;99.90;;;;;;4970397;28;20050;-72
2022/08/10 04:40:17;;;;;;;11.02;6.90;;;21.90;99.90;;;;;;4957425;28;20023;-76
2022/08/10 04:42:43;;;;;;;11.75;6.88;;;22.10;99.90;;;;;;4957561;28;20035;-77
2022/08/10 04:45:10;;;;;;;12.07;7.20;;;21.90;99.90;;;;;;4957056;28;20055;-77
2022/08/10 04:47:37;;;;;;;12.57;7.30;;;22.00;99.90;;;;;;4957217;28;20392;-76
2022/08/10 04:50:04;;;;;;;11.57;7.20;;;21.80;99.90;;;;;;4957600;28;20028;-77
2022/08/10 04:52:29;;;;;;;12.85;7.63;;;21.50;99.90;;;;;;4957392;28;20039;-77
2022/08/10 04:54:55;;;;;;;13.13;7.07;;;21.60;99.90;;;;;;4957393;28;20027;-75
2022/08/10 04:57:21;;;;;;;11.95;7.30;;;21.60;99.90;;;;;;4956897;28;20221;-76
2022/08/10 04:59:47;;;;;;;13.00;6.90;;;22.10;99.90;;;;;;4965831;28;20027;-77
2022/08/10 05:02:13;;;;;;;11.48;6.90;;;22.00;99.90;;;;;;4957190;28;20059;-77
2022/08/10 05:04:39;;;;;;;10.80;7.53;;;21.80;99.90;;;;;;4956959;28;20027;-77
2022/08/10 05:07:10;;;;;;;12.27;7.38;;;21.50;99.90;;;;;;4956955;28;20034;-72
2022/08/10 05:09:40;;;;;;;14.63;7.22;;;21.20;99.90;;;;;;4957051;28;20035;-76
2022/08/10 05:12:06;;;;;;;14.27;7.43;;;21.10;99.90;;;;;;4957036;28;20027;-76
2022/08/10 05:14:32;;;;;;;12.52;7.07;;;21.10;99.90;;;;;;4957203;28;20032;-77
2022/08/10 05:16:58;;;;;;;12.43;6.93;;;21.10;99.90;;;;;;4960232;28;20461;-75
2022/08/10 05:19:25;;;;;;;13.43;7.47;;;21.10;99.90;;;;;;4956759;28;20122;-76
2022/08/10 05:21:51;;;;;;;11.45;7.30;;;21.20;99.90;;;;;;4955167;28;20461;-77
2022/08/10 05:24:17;;;;;;;12.20;7.32;;;21.20;99.90;;;;;;4956857;28;20062;-77
2022/08/10 05:26:43;;;;;;;13.38;8.43;;;21.10;99.90;;;;;;4956980;28;20054;-77
2022/08/10 05:29:08;;;;;;;12.80;7.55;;;21.10;99.90;;;;;;4956684;28;20030;-75
2022/08/10 05:31:35;;;;;;;13.35;7.72;;;21.10;99.90;;;;;;4956758;29;20034;-76
2022/08/10 05:34:00;;;;;;;11.88;7.45;;;21.20;99.90;;;;;;4956601;28;20102;-76
2022/08/10 05:36:27;;;;;;;12.73;7.82;;;21.30;99.90;;;;;;4956596;28;20482;-75
2022/08/10 05:38:54;;;;;;;14.38;8.32;;;21.20;99.90;;;;;;4956766;28;20082;-77
2022/08/10 05:41:20;;;;;;;12.85;7.78;;;21.20;99.90;;;;;;4956401;28;20131;-76
2022/08/10 05:43:46;;;;;;;13.98;7.75;;;21.20;99.90;;;;;;4956339;28;20130;-72
2022/08/10 05:46:12;;;;;;;12.20;8.15;;;21.20;99.90;;;;;;4956428;28;20094;-73
2022/08/10 05:48:40;;;;;;;13.02;7.07;;;21.30;99.90;;;;;;4955432;28;20066;-75
2022/08/10 05:51:07;;;;;;;12.02;7.80;;;21.20;99.90;;;;;;4956093;28;20191;-77
2022/08/10 05:53:35;;;;;;;10.60;7.20;;;21.20;99.90;;;;;;4955170;29;20026;-77
2022/08/10 05:56:03;;;;;;;17.83;8.25;;;21.20;99.90;;;;;;4956145;28;20405;-76
2022/08/10 05:58:28;;;;;;;13.55;8.02;;;21.40;99.90;;;;;;4956403;28;20508;-76
2022/08/10 06:00:58;;;;;;;13.07;7.55;;;21.50;99.90;;;;;;4955181;28;20110;-77
2022/08/10 06:03:30;;;;;;;14.52;6.30;;;21.70;99.90;;;;;;4956020;28;20023;-77
2022/08/10 06:05:59;;;;;;;10.02;6.85;;;21.80;99.90;;;;;;4956019;28;20114;-76
2022/08/10 06:08:30;;;;;;;10.90;7.45;;;21.80;99.90;;;;;;4955904;28;20035;-73
2022/08/10 06:10:58;;;;;;;10.52;7.13;;;21.80;99.90;;;;;;4948427;29;20023;-77
2022/08/10 06:16:13;;;;;;;8.93;5.95;;;21.90;99.90;;;;;;4955771;29;20118;-77
2022/08/10 06:18:40;;;;;;;13.48;6.93;;;21.90;99.90;;;;;;4955499;28;20492;-75
2022/08/10 06:21:08;;;;;;;9.80;6.35;;;22.10;99.90;;;;;;4955869;28;20373;-78
2022/08/10 06:23:35;;;;;;;9.25;6.03;;;22.00;99.90;;;;;;4955397;28;20037;-76
2022/08/10 06:26:02;;;;;;;9.90;6.60;;;22.30;99.90;;;;;;4955689;28;20019;-76
2022/08/10 06:28:32;;;;;;;11.55;6.70;;;22.40;99.90;;;;;;4955380;28;20031;-76
2022/08/10 06:31:00;;;;;;;12.30;5.57;;;22.70;99.90;;;;;;4955392;28;20019;-76
2022/08/10 06:33:30;;;;;;;8.05;5.38;;;22.90;99.90;;;;;;4955509;28;20027;-76
2022/08/10 06:35:58;;;;;;;9.75;5.57;;;23.20;99.90;;;;;;4955673;28;20023;-76
2022/08/10 06:38:27;;;;;;;9.80;5.43;;;23.30;99.90;;;;;;4955248;28;20118;-76
2022/08/10 06:40:57;;;;;;;8.27;5.60;;;23.40;99.90;;;;;;4955094;28;20038;-76
2022/08/10 06:43:24;;;;;;;8.45;5.10;;;23.20;99.90;;;;;;4954616;28;20035;-76
2022/08/10 06:46:11;;;;;;;7.25;4.88;;;23.20;99.90;;;;;;4955529;28;20409;-75
2022/08/10 06:48:45;;;;;;;7.90;4.72;;;23.30;99.90;;;;;;4955392;28;20026;-75
2022/08/10 06:51:20;;;;;;;6.57;4.80;;;23.30;99.90;;;;;;4955109;28;20030;-76
2022/08/10 06:53:49;;;;;;;9.77;4.50;;;23.50;99.90;;;;;;4947271;28;20039;-76
2022/08/10 06:56:19;;;;;;;10.70;5.03;;;23.80;99.90;;;;;;4955281;28;20023;-75
2022/08/10 06:58:50;;;;;;;7.85;4.80;;;24.30;99.90;;;;;;4954485;28;20062;-75
2022/08/10 07:01:19;;;;;;;7.93;4.13;;;;;;;;;;4954544;28;20465;-75
2022/08/10 07:04:05;;;;;;;6.65;4.45;;;24.70;99.90;;;;;;4955062;28;20027;-74
2022/08/10 07:06:33;;;;;;;9.38;4.50;;;25.00;99.90;;;;;;4954903;28;20122;-73
2022/08/10 07:09:00;;;;;;;5.80;3.60;;;25.40;99.90;;;;;;4953951;28;20509;-74
2022/08/10 07:11:28;;;;;;;5.35;3.85;;;25.60;99.90;;;;;;4953707;28;20059;-74
2022/08/10 07:13:55;;;;;;;5.07;3.60;;;25.90;99.90;;;;;;4954615;28;20027;-75
2022/08/10 07:16:27;;;;;;;4.13;3.55;;;25.90;99.90;;;;;;4954445;28;20123;-73
2022/08/10 07:18:55;;;;;;;6.03;3.75;;;25.90;99.90;;;;;;4954398;28;20489;-74
2022/08/10 07:21:27;;;;;;;4.28;3.53;;;25.60;98.60;;;;;;4954478;28;20028;-74
2022/08/10 07:23:54;;;;;;;5.63;2.97;;;25.60;99.90;;;;;;4954412;28;20030;-74
2022/08/10 07:26:21;;;;;;;9.82;2.90;;;25.40;99.90;;;;;;4954200;28;20082;-75
2022/08/10 07:28:50;;;;;;;4.38;2.88;;;25.60;99.90;;;;;;4954378;28;20027;-74
2022/08/10 07:31:19;;;;;;;4.00;2.65;;;25.60;99.90;;;;;;4954508;28;20046;-73
2022/08/10 07:33:48;;;;;;;5.13;3.20;;;25.60;99.90;;;;;;4969315;28;20028;-74
2022/08/10 07:36:16;;;;;;;3.47;2.40;;;25.60;99.90;;;;;;4953837;28;20382;-74
2022/08/10 07:38:42;;;;;;;4.63;2.92;;;25.80;99.90;;;;;;4962764;28;20035;-71
2022/08/10 07:41:09;;;;;;;3.45;2.72;;;25.70;97.40;;;;;;4953953;28;20176;-74
2022/08/10 07:43:37;;;;;;;5.20;3.45;;;;;;;;;;4954055;28;20070;-73
2022/08/10 07:46:04;;;;;;;5.38;2.80;;;25.90;96.50;;;;;;4954261;29;20056;-74
2022/08/10 07:48:34;;;;;;;4.30;2.53;;;26.10;96.70;;;;;;4954456;28;20425;-74
2022/08/10 07:51:01;;;;;;;8.27;3.67;;;26.10;96.50;;;;;;4954302;28;20519;-73
2022/08/10 07:53:33;;;;;;;7.57;3.20;;;26.10;95.50;;;;;;4954418;28;20034;-74
2022/08/10 07:56:02;;;;;;;4.55;3.17;;;;;;;;;;4954543;28;20042;-74
2022/08/10 07:58:33;;;;;;;4.30;2.95;;;26.30;97.10;;;;;;4953783;28;20094;-73
2022/08/10 08:00:59;;;;;;;7.53;3.17;;;26.40;97.80;;;;;;4954151;28;20123;-74
2022/08/10 08:03:28;;;;;;;4.75;3.03;;;26.50;94.60;;;;;;4953806;28;20045;-73
2022/08/10 08:05:55;;;;;;;7.55;3.15;;;;;;;;;;4952348;29;20111;-74
2022/08/10 08:08:22;;;;;;;3.92;3.00;;;26.60;94.50;;;;;;4954090;28;20066;-74
2022/08/10 08:10:49;;;;;;;7.30;3.15;;;;;;;;;;4954104;28;20030;-74
2022/08/10 08:13:16;;;;;;;5.57;3.40;;;;;;;;;;4956654;28;20019;-73
2022/08/10 08:15:43;;;;;;;4.97;3.42;;;26.90;91.70;;;;;;4957785;28;20039;-73
2022/08/10 08:18:11;;;;;;;6.97;3.15;;;26.90;93.60;;;;;;4955656;28;20518;-73
2022/08/10 08:20:38;;;;;;;6.22;3.22;;;26.80;91.70;;;;;;4955264;28;20019;-74
2022/08/10 08:23:05;;;;;;;6.18;3.42;;;;;;;;;;4957265;28;20027;-74
2022/08/10 08:25:32;;;;;;;4.97;3.15;;;27.20;90.30;;;;;;4957966;28;20485;-72
2022/08/10 08:28:00;;;;;;;5.40;3.22;;;27.10;91.00;;;;;;4957978;28;20492;-74
2022/08/10 08:30:27;;;;;;;5.63;3.05;;;27.10;90.60;;;;;;4956469;28;20086;-74
2022/08/10 08:35:41;;;;;;;5.18;3.03;;;27.10;92.00;;;;;;4956544;29;20393;-75
2022/08/10 08:38:06;;;;;;;3.88;2.83;;;27.00;92.10;;;;;;4957196;28;20062;-74
2022/08/10 08:40:35;;;;;;;5.55;3.42;;;27.00;93.30;;;;;;4956392;28;20094;-74
2022/08/10 08:43:07;;;;;;;6.35;3.22;;;27.20;92.10;;;;;;4957235;28;20035;-73
2022/08/10 08:45:36;;;;;;;5.28;3.05;;;;;;;;;;4956812;28;20047;-73
2022/08/10 08:48:21;;;;;;;4.28;2.70;;;;;;;;;;4957186;28;20034;-74
2022/08/10 08:50:50;;;;;;;5.50;3.25;;;;;;;;;;4957099;29;20027;-75
2022/08/10 08:53:21;;;;;;;4.45;3.22;;;;;;;;;;4957209;29;20086;-75
2022/08/10 08:56:00;;;;;;;5.30;3.40;;;;;;;;;;4957084;28;20030;-74
2022/08/10 08:58:32;;;;;;;6.35;3.42;;;27.60;99.90;;;;;;4957233;29;20397;-75
2022/08/10 09:01:19;;;;;;;8.63;3.92;;;;;;;;;;4956605;28;20027;-75
2022/08/10 09:03:56;;;;;;;4.95;2.70;;;;;;;;;;4957097;28;20378;-73
2022/08/10 09:06:39;;;;;;;6.30;3.42;;;;;;;;;;4957662;28;20023;-75
2022/08/10 09:09:54;;;;;;;4.97;3.13;;;28.10;99.90;;;;;;4956874;29;20114;-76
2022/08/10 09:12:34;;;;;;;4.88;3.10;;;28.30;91.90;;;;;;4970064;28;20019;-76
2022/08/10 09:15:29;;;;;;;6.03;3.10;;;27.70;87.10;;;;;;4974113;28;20520;-75
2022/08/10 09:18:18;;;;;;;4.40;2.60;;;27.70;88.40;;;;;;4955259;28;20426;-76
2022/08/10 09:21:19;;;;;;;7.90;3.25;;;;;;;;;;4973737;28;20030;-75
2022/08/10 09:23:52;;;;;;;13.45;3.08;;;27.50;99.90;;;;;;4934469;29;20036;-75
2022/08/10 09:26:22;;;;;;;3.05;2.53;;;;;;;;;;4919374;29;20066;-75
2022/08/10 09:28:53;;;;;;;5.68;3.40;;;26.90;92.20;;;;;;4926981;29;20107;-77
2022/08/10 09:31:23;;;;;;;6.90;3.85;;;26.70;93.60;;;;;;4934350;29;20160;-76
2022/08/10 09:33:56;;;;;;;4.22;2.90;;;;;;;;;;4918140;29;20483;-74
2022/08/10 09:36:48;;;;;;;4.05;2.97;;;26.20;94.60;;;;;;4918809;29;20505;-75
2022/08/10 09:39:43;;;;;;;3.70;2.58;;;26.40;94.30;;;;;;4930284;29;20054;-76
2022/08/10 09:42:39;;;;;;;5.80;2.90;;;26.30;95.60;;;;;;4877019;29;20411;-76
2022/08/10 09:45:17;;;;;;;3.65;2.85;;;26.40;95.70;;;;;;4849880;29;20441;-75
2022/08/10 09:47:58;;;;;;;3.97;2.80;;;26.40;94.40;;;;;;4859967;29;20037;-74
2022/08/10 09:50:54;;;;;;;4.47;3.20;;;26.50;95.80;;;;;;4860054;29;20124;-76
2022/08/10 09:53:33;;;;;;;5.50;3.08;;;26.60;93.90;;;;;;4859710;29;20078;-76
2022/08/10 09:56:02;;;;;;;5.95;3.28;;;26.90;92.50;;;;;;4859880;29;20026;-75
2022/08/10 09:58:36;;;;;;;3.85;2.65;;;26.90;92.90;;;;;;4873728;29;20072;-76
2022/08/10 10:01:22;;;;;;;5.82;2.85;;;26.90;92.30;;;;;;4877714;29;20033;-75
2022/08/10 10:04:29;;;;;;;3.63;2.78;;;26.80;92.10;;;;;;4878109;29;20043;-75
2022/08/10 10:07:02;;;;;;;4.97;3.05;;;26.80;93.20;;;;;;4859348;29;20048;-75
2022/08/10 10:09:31;;;;;;;4.32;2.65;;;27.00;93.20;;;;;;4844043;29;20041;-75
2022/08/10 10:12:08;;;;;;;5.32;3.10;;;27.00;92.00;;;;;;4859231;29;20052;-75
2022/08/10 10:15:19;;;;;;;4.30;2.65;;;27.10;91.00;;;;;;4859702;29;20034;-75
2022/08/10 10:17:51;;;;;;;3.00;2.70;;;27.10;91.70;;;;;;4870637;29;20060;-74
2022/08/10 10:20:25;;;;;;;6.82;2.92;;;27.30;91.70;;;;;;4915718;29;20071;-73
2022/08/10 10:23:06;;;;;;;9.82;3.38;;;27.00;91.50;;;;;;4914818;29;20044;-72
2022/08/10 10:26:10;;;;;;;3.25;2.40;;;27.00;91.60;;;;;;4914255;29;20164;-75
2022/08/10 10:29:15;;;;;;;5.15;2.47;;;27.20;91.50;;;;;;4874130;29;20037;-76
2022/08/10 10:32:02;;;;;;;4.75;3.17;;;27.20;91.00;;;;;;4868277;29;20617;-76
2022/08/10 10:35:07;;;;;;;3.13;2.25;;;26.90;90.90;;;;;;4876812;29;20052;-74
2022/08/10 10:37:35;;;;;;;4.35;2.63;;;27.20;92.00;;;;;;4877171;29;20041;-73
2022/08/10 10:40:03;;;;;;;4.32;2.90;;;27.30;90.10;;;;;;4877632;29;20048;-75
2022/08/10 10:42:50;;;;;;;5.22;3.28;;;27.10;90.40;;;;;;4877127;29;20068;-73
2022/08/10 10:45:30;;;;;;;4.22;2.47;;;26.90;90.80;;;;;;4895376;29;20535;-75
2022/08/10 10:48:24;;;;;;;5.05;2.50;;;27.10;90.40;;;;;;4895162;29;20487;-75
2022/08/10 10:51:14;;;;;;;4.43;2.63;;;27.00;89.60;;;;;;4896046;29;20039;-75
2022/08/10 10:54:12;;;;;;;5.00;2.97;;;27.20;88.30;;;;;;4885818;29;20048;-75
2022/08/10 10:57:02;;;;;;;4.47;2.78;;;27.10;90.00;;;;;;4895653;29;20036;-75
2022/08/10 10:59:50;;;;;;;9.13;3.40;;;27.10;88.80;;;;;;4895421;29;20608;-72
2022/08/10 11:02:44;;;;;;;3.38;2.50;;;27.10;88.40;;;;;;4895467;29;20157;-73
2022/08/10 11:05:31;;;;;;;4.53;2.78;;;27.20;86.90;;;;;;4919651;29;20485;-73
2022/08/10 11:08:06;;;;;;;6.22;3.90;;;27.50;90.20;;;;;;4954155;28;20027;-73
2022/08/10 11:10:50;;;;;;;5.65;3.00;;;27.50;90.20;;;;;;4954901;28;20462;-73
2022/08/10 11:13:37;;;;;;;8.32;3.53;;;27.30;90.40;;;;;;4954594;28;20486;-74
2022/08/10 11:16:04;;;;;;;7.05;3.55;;;27.20;88.80;;;;;;4954324;28;20027;-73
2022/08/10 11:18:54;;;;;;;4.78;2.85;;;27.30;86.60;;;;;;4953481;28;20416;-74
2022/08/10 11:21:26;;;;;;;7.88;3.17;;;27.30;86.00;;;;;;4954566;28;20063;-73
2022/08/10 11:24:12;;;;;;;3.58;2.88;;;27.30;87.80;;;;;;4954496;28;20110;-73
2022/08/10 11:26:38;;;;;;;5.75;2.72;;;27.50;86.40;;;;;;4954829;28;20441;-74
2022/08/10 11:29:17;;;;;;;5.00;2.90;;;27.70;83.80;;;;;;4953727;28;20025;-73
2022/08/10 11:31:47;;;;;;;4.47;2.65;;;;;;;;;;4953605;28;20039;-73
2022/08/10 11:34:14;;;;;;;4.82;2.55;;;;;;;;;;4960244;28;20028;-70
2022/08/10 11:36:52;;;;;;;3.95;2.80;;;;;;;;;;4954576;29;20031;-72
2022/08/10 11:39:38;;;;;;;5.70;2.75;;;27.70;85.20;;;;;;4954012;28;20489;-70
2022/08/10 11:42:21;;;;;;;5.30;2.17;;;27.90;80.70;;;;;;4954543;28;20039;-71
2022/08/10 11:44:56;;;;;;;4.43;2.10;;;27.90;94.10;;;;;;4955656;28;20094;-71
2022/08/10 11:47:32;;;;;;;4.65;2.00;;;28.20;91.50;;;;;;4956652;28;20035;-72
2022/08/10 11:50:24;;;;;;;2.38;2.13;;;28.20;88.90;;;;;;4960397;28;20390;-71
2022/08/10 11:53:48;;;;;;;2.83;1.88;;;28.10;89.00;;;;;;4958332;29;20019;-71
2022/08/10 11:56:38;;;;;;;4.00;2.65;;;28.00;82.40;;;;;;4934597;29;20035;-71
2022/08/10 12:01:53;;;;;;;3.97;2.65;;;;;;;;;;4936782;29;20040;-71
2022/08/10 12:04:20;;;;;;;6.13;2.33;;;28.30;93.40;;;;;;4936729;29;20043;-71
2022/08/10 12:06:47;;;;;;;4.28;2.60;;;28.30;75.10;;;;;;4936078;29;20046;-72
2022/08/10 12:09:16;;;;;;;8.15;2.50;;;;;;;;;;4936704;29;20526;-71
2022/08/10 12:11:42;;;;;;;4.15;2.15;;;28.60;74.00;;;;;;4936501;29;20039;-73
2022/08/10 12:14:28;;;;;;;4.70;2.30;;;28.40;72.30;;;;;;4937065;29;20048;-70
2022/08/10 12:17:02;;;;;;;4.47;2.20;;;28.40;72.60;;;;;;4934680;29;20077;-70
2022/08/10 12:19:36;;;;;;;3.58;2.17;;;28.30;72.90;;;;;;4935092;29;20043;-71
2022/08/10 12:22:07;;;;;;;3.85;2.30;;;28.50;74.40;;;;;;4936632;29;20503;-73
2022/08/10 12:24:54;;;;;;;7.53;2.50;;;28.50;73.00;;;;;;4936003;29;20082;-72
2022/08/10 12:27:33;;;;;;;3.47;2.35;;;28.50;72.60;;;;;;4948898;29;20489;-72
2022/08/10 12:30:05;;;;;;;6.43;3.03;;;28.50;73.20;;;;;;4956579;29;20027;-70
2022/08/10 12:32:40;;;;;;;2.72;1.95;;;28.50;72.90;;;;;;4958121;28;20066;-70
2022/08/10 12:35:12;;;;;;;3.20;2.28;;;28.60;73.80;;;;;;4967265;28;20062;-70
2022/08/10 12:37:45;;;;;;;;;;;28.50;73.50;;;;;;4964643;28;20106;-65
2022/08/10 12:40:27;;;;;;;6.70;2.45;;;28.50;74.70;;;;;;4956149;28;20380;-69
2022/08/10 12:43:08;;;;;;;3.85;2.40;;;28.50;75.90;;;;;;4949919;28;20031;-70
2022/08/10 12:45:41;;;;;;;3.97;2.70;;;28.50;78.10;;;;;;4951012;29;20074;-71
2022/08/10 12:48:19;;;;;;;4.78;2.67;;;28.60;76.50;;;;;;4956178;28;20090;-72
2022/08/10 12:51:20;;;;;;;4.38;2.30;;;28.70;76.10;;;;;;4953995;28;20034;-71
2022/08/10 12:53:55;;;;;;;2.80;2.40;;;29.10;74.80;;;;;;4946406;29;20027;-72
2022/08/10 12:56:29;;;;;;;2.65;1.88;;;28.80;73.70;;;;;;4956911;28;20389;-73
2022/08/10 12:58:56;;;;;;;2.90;1.90;;;28.90;73.80;;;;;;4954651;28;20110;-73
2022/08/10 13:01:29;;;;;;;5.40;2.70;;;28.60;72.70;;;;;;4957205;28;20031;-73
2022/08/10 13:04:00;;;;;;;2.78;2.28;;;28.70;74.30;;;;;;4956900;28;20494;-73
2022/08/10 13:06:28;;;;;;;4.40;2.85;;;28.70;73.50;;;;;;4957013;29;20524;-72
2022/08/10 13:09:11;;;;;;;2.88;2.38;;;28.60;77.30;;;;;;4956705;28;20035;-74
2022/08/10 13:11:49;;;;;;;4.28;2.85;;;28.80;78.80;;;;;;4956691;28;20031;-75
2022/08/10 13:14:25;;;;;;;4.30;2.60;;;28.60;78.30;;;;;;4955514;29;20035;-74
2022/08/10 13:16:56;;;;;;;4.57;2.53;;;28.20;76.60;;;;;;4956613;28;20086;-71
2022/08/10 13:19:24;;;;;;;4.20;2.75;;;28.20;77.80;;;;;;4956862;28;20449;-73
2022/08/10 13:21:51;;;;;;;7.55;2.88;;;28.20;77.40;;;;;;4956718;28;20031;-73
2022/08/10 13:24:26;;;;;;;3.17;2.60;;;28.40;78.40;;;;;;4956566;28;20047;-74
2022/08/10 13:27:02;;;;;;;4.10;2.75;;;28.40;80.30;;;;;;4956659;28;20035;-71
2022/08/10 13:29:32;;;;;;;4.78;3.30;;;28.20;79.80;;;;;;4956464;28;20362;-70